Guadalajara, Mexico

8:01 PM CDT on August 04, 2015 (GMT -0500)
Don Miguel Hidalgo International | | Change Station
CLOSE
Current Station
Airport
Location: Guadalajara Don Miguel,
Elevation: 5013 ft
Nearby Weather Stations

Elev 5013 ft 20.52 °N, 103.31 °W | Updated 11 minutes ago

Overcast
Overcast
73 °F
Feels Like 73 °F
N
0
Wind Variable Wind from North

Today
High -- | Low -- °F
--% Chance of Precip.
Yesterday
High -- | Low -- °F
Precip. -- in
7:28 AM 8:30 PM
Waning Gibbous, 73% visible
Pressure 30.11 in
Visibility 10.0 miles
Clouds Scattered Clouds 9000 ft
Mostly Cloudy 10000 ft
Overcast 30000 ft
Dew Point 61 °F
Humidity 65%
Rainfall 0.00 in
Snow Depth Not available.
UV 0 out of 12
Pollen Not available.
Air Quality Not available.
Flu Activity Not available.
METAR MMGL 050050Z 00000KT 10SM SCT090 BKN100 OVC300 23/16 A3011 RMK 8/077 BINOVC SC-CU

More Conditions Fewer Conditions

Pressure 30.11 in
Visibility 10.0 miles
Clouds Scattered Clouds 9000 ft
Mostly Cloudy 10000 ft
Overcast 30000 ft
Dew Point 61 °F
Humidity 65%
Rainfall 0.00 in
Snow Depth Not available.
UV 0 out of 12
Pollen Not available.
Air Quality Not available.
Flu Activity Not available.
METAR MMGL 050050Z 00000KT 10SM SCT090 BKN100 OVC300 23/16 A3011 RMK 8/077 BINOVC SC-CU

More Conditions Fewer Conditions

10-Day Weather Forecast

×

Almanac

Astronomy

Aug. 04, 2015 Rise Set
Actual Time
Civil Twilight
Nautical Twilight
Astronomical Twilight
Moon
Length of Visible Light
Length of Day
Tomorrow will be .
, % of the Moon is Illuminated

Today's Extremes

Country Highs Country Lows

Community

WunderPhotos

Upload Photos

1,844,049 photos uploaded!

WunderBlogs® & News

Nearby

Air Quality

  Air Quality AQ Index Pollutant
Not available.

Snow Depth

Station Depth Elevation

Earthquake Activity

City Distance Mag. Time & Date
Minimum magnitude displayed is 2.5.

Coastal Water Temperatures

Place Temperature

Stations

Nearby Weather Stations

Station Location Temp. Windchill Dew Point Humidity Wind Precip. Elev Updated Type